sensor_id;sensor_type;location;lat;lon;timestamp;P1;durP1;ratioP1;P2;durP2;ratioP2
27428;SDS011;14881;48.092;11.574;2022-09-17T00:00:50;13.43;;;8.07;;
27428;SDS011;14881;48.092;11.574;2022-09-17T00:03:18;8.57;;;7.72;;
27428;SDS011;14881;48.092;11.574;2022-09-17T00:05:46;11.60;;;7.40;;
27428;SDS011;14881;48.092;11.574;2022-09-17T00:08:14;12.48;;;8.02;;
27428;SDS011;14881;48.092;11.574;2022-09-17T00:10:43;12.02;;;8.02;;
27428;SDS011;14881;48.092;11.574;2022-09-17T00:13:11;12.02;;;7.47;;
27428;SDS011;14881;48.092;11.574;2022-09-17T00:15:39;12.82;;;8.00;;
27428;SDS011;14881;48.092;11.574;2022-09-17T00:18:08;9.82;;;7.72;;
27428;SDS011;14881;48.092;11.574;2022-09-17T00:20:38;8.57;;;7.25;;
27428;SDS011;14881;48.092;11.574;2022-09-17T00:23:06;10.60;;;8.70;;
27428;SDS011;14881;48.092;11.574;2022-09-17T00:25:36;11.13;;;6.88;;
27428;SDS011;14881;48.092;11.574;2022-09-17T00:28:06;10.32;;;7.70;;
27428;SDS011;14881;48.092;11.574;2022-09-17T00:30:37;8.20;;;6.80;;
27428;SDS011;14881;48.092;11.574;2022-09-17T00:33:06;8.50;;;6.82;;
27428;SDS011;14881;48.092;11.574;2022-09-17T00:35:34;10.10;;;6.82;;
27428;SDS011;14881;48.092;11.574;2022-09-17T00:38:01;11.00;;;6.40;;
27428;SDS011;14881;48.092;11.574;2022-09-17T00:40:29;8.27;;;5.65;;
27428;SDS011;14881;48.092;11.574;2022-09-17T00:42:57;7.47;;;5.65;;
27428;SDS011;14881;48.092;11.574;2022-09-17T00:45:26;18.13;;;5.95;;
27428;SDS011;14881;48.092;11.574;2022-09-17T00:47:56;5.55;;;5.00;;
27428;SDS011;14881;48.092;11.574;2022-09-17T00:50:26;6.45;;;4.95;;
27428;SDS011;14881;48.092;11.574;2022-09-17T00:52:56;11.50;;;5.40;;
27428;SDS011;14881;48.092;11.574;2022-09-17T00:55:29;6.68;;;4.88;;
27428;SDS011;14881;48.092;11.574;2022-09-17T00:58:00;7.75;;;4.55;;
27428;SDS011;14881;48.092;11.574;2022-09-17T01:00:32;6.03;;;4.07;;
27428;SDS011;14881;48.092;11.574;2022-09-17T01:03:00;4.90;;;4.07;;
27428;SDS011;14881;48.092;11.574;2022-09-17T01:05:30;4.65;;;4.13;;
27428;SDS011;14881;48.092;11.574;2022-09-17T01:08:05;4.95;;;3.88;;
27428;SDS011;14881;48.092;11.574;2022-09-17T01:13:42;7.85;;;3.90;;
27428;SDS011;14881;48.092;11.574;2022-09-17T01:16:22;4.40;;;3.95;;
27428;SDS011;14881;48.092;11.574;2022-09-17T01:18:59;5.57;;;3.95;;
27428;SDS011;14881;48.092;11.574;2022-09-17T01:21:40;5.47;;;3.78;;
27428;SDS011;14881;48.092;11.574;2022-09-17T01:24:24;4.40;;;4.00;;
27428;SDS011;14881;48.092;11.574;2022-09-17T01:30:15;5.35;;;3.83;;
27428;SDS011;14881;48.092;11.574;2022-09-17T01:32:56;5.43;;;3.80;;
27428;SDS011;14881;48.092;11.574;2022-09-17T01:35:28;4.85;;;4.13;;
27428;SDS011;14881;48.092;11.574;2022-09-17T01:38:04;6.45;;;3.88;;
27428;SDS011;14881;48.092;11.574;2022-09-17T01:40:39;6.72;;;4.32;;
27428;SDS011;14881;48.092;11.574;2022-09-17T01:43:18;5.85;;;4.15;;
27428;SDS011;14881;48.092;11.574;2022-09-17T01:45:55;4.55;;;4.15;;
27428;SDS011;14881;48.092;11.574;2022-09-17T01:48:32;3.85;;;3.55;;
27428;SDS011;14881;48.092;11.574;2022-09-17T01:51:04;4.85;;;3.88;;
27428;SDS011;14881;48.092;11.574;2022-09-17T01:53:34;5.63;;;4.07;;
27428;SDS011;14881;48.092;11.574;2022-09-17T01:56:06;5.25;;;4.13;;
27428;SDS011;14881;48.092;11.574;2022-09-17T01:58:39;4.43;;;4.03;;
27428;SDS011;14881;48.092;11.574;2022-09-17T02:01:13;4.72;;;3.88;;
27428;SDS011;14881;48.092;11.574;2022-09-17T02:03:45;8.20;;;4.03;;
27428;SDS011;14881;48.092;11.574;2022-09-17T02:06:18;5.57;;;3.72;;
27428;SDS011;14881;48.092;11.574;2022-09-17T02:08:51;5.70;;;3.83;;
27428;SDS011;14881;48.092;11.574;2022-09-17T02:11:22;3.78;;;3.33;;
27428;SDS011;14881;48.092;11.574;2022-09-17T02:13:52;3.67;;;3.40;;
27428;SDS011;14881;48.092;11.574;2022-09-17T02:16:26;6.15;;;3.63;;
27428;SDS011;14881;48.092;11.574;2022-09-17T02:18:59;5.65;;;4.07;;
27428;SDS011;14881;48.092;11.574;2022-09-17T02:21:34;6.00;;;3.30;;
27428;SDS011;14881;48.092;11.574;2022-09-17T02:24:11;4.13;;;3.38;;
27428;SDS011;14881;48.092;11.574;2022-09-17T02:26:44;4.00;;;3.60;;
27428;SDS011;14881;48.092;11.574;2022-09-17T02:29:18;5.93;;;3.50;;
27428;SDS011;14881;48.092;11.574;2022-09-17T02:31:54;4.85;;;3.40;;
27428;SDS011;14881;48.092;11.574;2022-09-17T02:34:21;6.07;;;3.22;;
27428;SDS011;14881;48.092;11.574;2022-09-17T02:36:52;5.25;;;3.08;;
27428;SDS011;14881;48.092;11.574;2022-09-17T02:39:27;4.20;;;3.30;;
27428;SDS011;14881;48.092;11.574;2022-09-17T02:41:56;5.28;;;4.28;;
27428;SDS011;14881;48.092;11.574;2022-09-17T02:44:35;5.93;;;3.63;;
27428;SDS011;14881;48.092;11.574;2022-09-17T02:50:37;3.22;;;2.92;;
27428;SDS011;14881;48.092;11.574;2022-09-17T02:53:20;3.90;;;3.10;;
27428;SDS011;14881;48.092;11.574;2022-09-17T02:56:03;4.60;;;3.60;;
27428;SDS011;14881;48.092;11.574;2022-09-17T02:58:39;3.88;;;3.00;;
27428;SDS011;14881;48.092;11.574;2022-09-17T03:01:14;3.08;;;2.78;;
27428;SDS011;14881;48.092;11.574;2022-09-17T03:03:48;4.45;;;2.90;;
27428;SDS011;14881;48.092;11.574;2022-09-17T03:06:19;3.65;;;2.78;;
27428;SDS011;14881;48.092;11.574;2022-09-17T03:08:47;5.85;;;3.17;;
27428;SDS011;14881;48.092;11.574;2022-09-17T03:11:15;2.95;;;2.65;;
27428;SDS011;14881;48.092;11.574;2022-09-17T03:13:43;3.80;;;2.63;;
27428;SDS011;14881;48.092;11.574;2022-09-17T03:16:11;4.35;;;3.55;;
27428;SDS011;14881;48.092;11.574;2022-09-17T03:18:38;3.35;;;2.65;;
27428;SDS011;14881;48.092;11.574;2022-09-17T03:21:08;4.93;;;3.10;;
27428;SDS011;14881;48.092;11.574;2022-09-17T03:23:37;5.13;;;3.17;;
27428;SDS011;14881;48.092;11.574;2022-09-17T03:26:05;2.53;;;2.33;;
27428;SDS011;14881;48.092;11.574;2022-09-17T03:28:33;8.13;;;3.03;;
27428;SDS011;14881;48.092;11.574;2022-09-17T03:31:00;5.65;;;2.72;;
27428;SDS011;14881;48.092;11.574;2022-09-17T03:33:28;5.32;;;2.90;;
27428;SDS011;14881;48.092;11.574;2022-09-17T03:35:56;6.50;;;3.05;;
27428;SDS011;14881;48.092;11.574;2022-09-17T03:38:25;3.13;;;2.83;;
27428;SDS011;14881;48.092;11.574;2022-09-17T03:40:57;4.72;;;2.97;;
27428;SDS011;14881;48.092;11.574;2022-09-17T03:43:25;6.22;;;3.10;;
27428;SDS011;14881;48.092;11.574;2022-09-17T03:45:53;5.97;;;3.03;;
27428;SDS011;14881;48.092;11.574;2022-09-17T03:48:21;3.58;;;2.80;;
27428;SDS011;14881;48.092;11.574;2022-09-17T03:50:49;3.90;;;3.10;;
27428;SDS011;14881;48.092;11.574;2022-09-17T03:53:16;2.85;;;2.60;;
27428;SDS011;14881;48.092;11.574;2022-09-17T03:55:46;7.63;;;3.30;;
27428;SDS011;14881;48.092;11.574;2022-09-17T03:58:13;3.47;;;3.17;;
27428;SDS011;14881;48.092;11.574;2022-09-17T04:00:41;3.97;;;3.50;;
27428;SDS011;14881;48.092;11.574;2022-09-17T04:03:09;4.43;;;3.10;;
27428;SDS011;14881;48.092;11.574;2022-09-17T04:05:37;4.97;;;3.60;;
27428;SDS011;14881;48.092;11.574;2022-09-17T04:08:05;4.32;;;3.55;;
27428;SDS011;14881;48.092;11.574;2022-09-17T04:10:33;3.33;;;3.03;;
27428;SDS011;14881;48.092;11.574;2022-09-17T04:13:02;6.47;;;3.38;;
27428;SDS011;14881;48.092;11.574;2022-09-17T04:15:30;7.60;;;3.22;;
27428;SDS011;14881;48.092;11.574;2022-09-17T04:17:57;4.22;;;3.83;;
27428;SDS011;14881;48.092;11.574;2022-09-17T04:20:25;6.13;;;3.55;;
27428;SDS011;14881;48.092;11.574;2022-09-17T04:22:54;6.03;;;3.67;;
27428;SDS011;14881;48.092;11.574;2022-09-17T04:25:21;4.00;;;3.70;;
27428;SDS011;14881;48.092;11.574;2022-09-17T04:27:49;4.65;;;3.60;;
27428;SDS011;14881;48.092;11.574;2022-09-17T04:30:19;7.07;;;3.65;;
27428;SDS011;14881;48.092;11.574;2022-09-17T04:32:46;4.90;;;3.47;;
27428;SDS011;14881;48.092;11.574;2022-09-17T04:35:14;4.53;;;3.13;;
27428;SDS011;14881;48.092;11.574;2022-09-17T04:37:42;7.97;;;3.33;;
27428;SDS011;14881;48.092;11.574;2022-09-17T04:40:10;4.55;;;3.22;;
27428;SDS011;14881;48.092;11.574;2022-09-17T04:42:38;4.88;;;3.63;;
27428;SDS011;14881;48.092;11.574;2022-09-17T04:45:06;6.60;;;3.38;;
27428;SDS011;14881;48.092;11.574;2022-09-17T04:47:38;4.40;;;4.00;;
27428;SDS011;14881;48.092;11.574;2022-09-17T04:50:06;4.45;;;3.63;;
27428;SDS011;14881;48.092;11.574;2022-09-17T04:52:34;6.22;;;3.95;;
27428;SDS011;14881;48.092;11.574;2022-09-17T04:55:02;4.72;;;3.60;;
27428;SDS011;14881;48.092;11.574;2022-09-17T04:57:30;4.00;;;3.20;;
27428;SDS011;14881;48.092;11.574;2022-09-17T04:59:58;4.40;;;2.88;;
27428;SDS011;14881;48.092;11.574;2022-09-17T05:02:26;3.75;;;3.22;;
27428;SDS011;14881;48.092;11.574;2022-09-17T05:04:55;6.43;;;3.45;;
27428;SDS011;14881;48.092;11.574;2022-09-17T05:07:23;4.38;;;2.85;;
27428;SDS011;14881;48.092;11.574;2022-09-17T05:09:51;3.63;;;3.00;;
27428;SDS011;14881;48.092;11.574;2022-09-17T05:12:19;5.78;;;2.92;;
27428;SDS011;14881;48.092;11.574;2022-09-17T05:14:46;5.90;;;3.60;;
27428;SDS011;14881;48.092;11.574;2022-09-17T05:17:14;6.53;;;3.00;;
27428;SDS011;14881;48.092;11.574;2022-09-17T05:19:42;5.57;;;3.28;;
27428;SDS011;14881;48.092;11.574;2022-09-17T05:22:11;4.97;;;3.00;;
27428;SDS011;14881;48.092;11.574;2022-09-17T05:24:43;4.32;;;3.00;;
27428;SDS011;14881;48.092;11.574;2022-09-17T05:27:11;7.07;;;3.22;;
27428;SDS011;14881;48.092;11.574;2022-09-17T05:29:39;4.53;;;3.35;;
27428;SDS011;14881;48.092;11.574;2022-09-17T05:32:06;8.35;;;3.55;;
27428;SDS011;14881;48.092;11.574;2022-09-17T05:34:34;5.32;;;3.10;;
27428;SDS011;14881;48.092;11.574;2022-09-17T05:37:02;4.43;;;3.17;;
27428;SDS011;14881;48.092;11.574;2022-09-17T05:39:31;4.93;;;2.92;;
27428;SDS011;14881;48.092;11.574;2022-09-17T05:41:59;7.07;;;3.15;;
27428;SDS011;14881;48.092;11.574;2022-09-17T05:44:26;3.22;;;2.67;;
27428;SDS011;14881;48.092;11.574;2022-09-17T05:46:54;4.70;;;3.20;;
27428;SDS011;14881;48.092;11.574;2022-09-17T05:49:22;4.28;;;3.30;;
27428;SDS011;14881;48.092;11.574;2022-09-17T05:51:50;5.18;;;2.80;;
27428;SDS011;14881;48.092;11.574;2022-09-17T05:54:18;5.85;;;3.50;;
27428;SDS011;14881;48.092;11.574;2022-09-17T05:56:47;5.70;;;3.33;;
27428;SDS011;14881;48.092;11.574;2022-09-17T05:59:15;4.82;;;3.25;;
27428;SDS011;14881;48.092;11.574;2022-09-17T06:01:43;6.22;;;3.17;;
27428;SDS011;14881;48.092;11.574;2022-09-17T06:04:11;5.78;;;3.35;;
27428;SDS011;14881;48.092;11.574;2022-09-17T06:06:39;5.35;;;2.83;;
27428;SDS011;14881;48.092;11.574;2022-09-17T06:09:07;9.07;;;3.55;;
27428;SDS011;14881;48.092;11.574;2022-09-17T06:11:35;5.57;;;3.15;;
27428;SDS011;14881;48.092;11.574;2022-09-17T06:14:05;5.43;;;2.75;;
27428;SDS011;14881;48.092;11.574;2022-09-17T06:16:32;4.97;;;2.95;;
27428;SDS011;14881;48.092;11.574;2022-09-17T06:19:00;5.57;;;2.85;;
27428;SDS011;14881;48.092;11.574;2022-09-17T06:21:29;4.68;;;2.90;;
27428;SDS011;14881;48.092;11.574;2022-09-17T06:23:57;6.72;;;2.88;;
27428;SDS011;14881;48.092;11.574;2022-09-17T06:26:24;6.68;;;3.00;;
27428;SDS011;14881;48.092;11.574;2022-09-17T06:28:52;3.10;;;2.60;;
27428;SDS011;14881;48.092;11.574;2022-09-17T06:31:21;3.88;;;3.03;;
27428;SDS011;14881;48.092;11.574;2022-09-17T06:33:49;4.57;;;3.13;;
27428;SDS011;14881;48.092;11.574;2022-09-17T06:36:18;5.78;;;3.15;;
27428;SDS011;14881;48.092;11.574;2022-09-17T06:38:45;3.30;;;2.53;;
27428;SDS011;14881;48.092;11.574;2022-09-17T06:41:13;4.25;;;2.63;;
27428;SDS011;14881;48.092;11.574;2022-09-17T06:43:42;4.97;;;2.90;;
27428;SDS011;14881;48.092;11.574;2022-09-17T06:46:10;6.63;;;3.20;;
27428;SDS011;14881;48.092;11.574;2022-09-17T06:48:39;10.15;;;3.25;;
27428;SDS011;14881;48.092;11.574;2022-09-17T06:51:09;7.45;;;2.83;;
27428;SDS011;14881;48.092;11.574;2022-09-17T06:53:37;3.20;;;2.25;;
27428;SDS011;14881;48.092;11.574;2022-09-17T06:56:06;8.20;;;3.00;;
27428;SDS011;14881;48.092;11.574;2022-09-17T06:58:35;3.50;;;2.63;;
27428;SDS011;14881;48.092;11.574;2022-09-17T07:01:04;7.05;;;2.75;;
27428;SDS011;14881;48.092;11.574;2022-09-17T07:03:32;6.25;;;2.78;;
27428;SDS011;14881;48.092;11.574;2022-09-17T07:06:02;7.07;;;3.20;;
27428;SDS011;14881;48.092;11.574;2022-09-17T07:08:30;5.88;;;2.70;;
27428;SDS011;14881;48.092;11.574;2022-09-17T07:11:00;5.50;;;2.97;;
27428;SDS011;14881;48.092;11.574;2022-09-17T07:13:28;5.80;;;2.72;;
27428;SDS011;14881;48.092;11.574;2022-09-17T07:15:56;6.60;;;2.67;;
27428;SDS011;14881;48.092;11.574;2022-09-17T07:18:26;6.07;;;3.00;;
27428;SDS011;14881;48.092;11.574;2022-09-17T07:20:54;5.35;;;2.78;;
27428;SDS011;14881;48.092;11.574;2022-09-17T07:23:25;6.70;;;2.65;;
27428;SDS011;14881;48.092;11.574;2022-09-17T07:25:54;5.18;;;2.58;;
27428;SDS011;14881;48.092;11.574;2022-09-17T07:28:24;6.82;;;2.90;;
27428;SDS011;14881;48.092;11.574;2022-09-17T07:30:52;3.58;;;2.50;;
27428;SDS011;14881;48.092;11.574;2022-09-17T07:33:22;3.92;;;2.13;;
27428;SDS011;14881;48.092;11.574;2022-09-17T07:35:51;4.18;;;2.00;;
27428;SDS011;14881;48.092;11.574;2022-09-17T07:38:19;3.90;;;2.28;;
27428;SDS011;14881;48.092;11.574;2022-09-17T07:40:56;5.55;;;2.20;;
27428;SDS011;14881;48.092;11.574;2022-09-17T07:43:25;4.65;;;2.28;;
27428;SDS011;14881;48.092;11.574;2022-09-17T07:45:55;4.78;;;2.25;;
27428;SDS011;14881;48.092;11.574;2022-09-17T07:48:24;3.35;;;2.30;;
27428;SDS011;14881;48.092;11.574;2022-09-17T07:50:53;5.60;;;2.17;;
27428;SDS011;14881;48.092;11.574;2022-09-17T07:53:22;4.03;;;2.00;;
27428;SDS011;14881;48.092;11.574;2022-09-17T07:55:50;6.40;;;2.58;;
27428;SDS011;14881;48.092;11.574;2022-09-17T07:58:19;11.93;;;2.60;;
27428;SDS011;14881;48.092;11.574;2022-09-17T08:00:48;7.78;;;2.50;;
27428;SDS011;14881;48.092;11.574;2022-09-17T08:03:16;11.02;;;2.53;;
27428;SDS011;14881;48.092;11.574;2022-09-17T08:05:43;6.80;;;2.28;;
27428;SDS011;14881;48.092;11.574;2022-09-17T08:08:11;9.13;;;2.38;;
27428;SDS011;14881;48.092;11.574;2022-09-17T08:10:45;5.95;;;2.55;;
27428;SDS011;14881;48.092;11.574;2022-09-17T08:13:15;7.70;;;2.35;;
27428;SDS011;14881;48.092;11.574;2022-09-17T08:15:45;7.35;;;2.33;;
27428;SDS011;14881;48.092;11.574;2022-09-17T08:18:14;10.43;;;2.20;;
27428;SDS011;14881;48.092;11.574;2022-09-17T08:20:42;10.27;;;4.20;;
27428;SDS011;14881;48.092;11.574;2022-09-17T08:23:10;12.93;;;5.18;;
27428;SDS011;14881;48.092;11.574;2022-09-17T08:25:37;3.97;;;2.38;;
27428;SDS011;14881;48.092;11.574;2022-09-17T08:28:05;8.52;;;4.30;;
27428;SDS011;14881;48.092;11.574;2022-09-17T08:30:33;7.72;;;2.50;;
27428;SDS011;14881;48.092;11.574;2022-09-17T08:33:02;8.15;;;2.83;;
27428;SDS011;14881;48.092;11.574;2022-09-17T08:35:30;6.15;;;2.30;;
27428;SDS011;14881;48.092;11.574;2022-09-17T08:37:58;7.57;;;2.20;;
27428;SDS011;14881;48.092;11.574;2022-09-17T08:40:25;6.05;;;2.42;;
27428;SDS011;14881;48.092;11.574;2022-09-17T08:42:54;6.20;;;2.00;;
27428;SDS011;14881;48.092;11.574;2022-09-17T08:45:25;4.78;;;2.10;;
27428;SDS011;14881;48.092;11.574;2022-09-17T08:47:54;6.38;;;2.05;;
27428;SDS011;14881;48.092;11.574;2022-09-17T08:50:31;6.13;;;2.20;;
27428;SDS011;14881;48.092;11.574;2022-09-17T08:53:13;5.65;;;2.25;;
27428;SDS011;14881;48.092;11.574;2022-09-17T08:55:55;5.80;;;2.17;;
27428;SDS011;14881;48.092;11.574;2022-09-17T08:58:32;4.55;;;2.00;;
27428;SDS011;14881;48.092;11.574;2022-09-17T09:01:13;5.15;;;2.25;;
27428;SDS011;14881;48.092;11.574;2022-09-17T09:04:00;13.80;;;2.30;;
27428;SDS011;14881;48.092;11.574;2022-09-17T09:06:43;6.65;;;1.98;;
27428;SDS011;14881;48.092;11.574;2022-09-17T09:09:15;6.95;;;2.25;;
27428;SDS011;14881;48.092;11.574;2022-09-17T09:11:46;7.15;;;2.17;;
27428;SDS011;14881;48.092;11.574;2022-09-17T09:14:17;6.38;;;2.35;;
27428;SDS011;14881;48.092;11.574;2022-09-17T09:16:49;7.32;;;1.95;;
27428;SDS011;14881;48.092;11.574;2022-09-17T09:19:21;6.38;;;2.45;;
27428;SDS011;14881;48.092;11.574;2022-09-17T09:22:00;8.43;;;2.72;;
27428;SDS011;14881;48.092;11.574;2022-09-17T09:24:33;9.95;;;2.53;;
27428;SDS011;14881;48.092;11.574;2022-09-17T09:27:15;8.40;;;2.22;;
27428;SDS011;14881;48.092;11.574;2022-09-17T09:29:50;6.53;;;2.15;;
27428;SDS011;14881;48.092;11.574;2022-09-17T09:32:33;3.60;;;2.00;;
27428;SDS011;14881;48.092;11.574;2022-09-17T09:35:15;9.18;;;2.40;;
27428;SDS011;14881;48.092;11.574;2022-09-17T09:37:48;4.13;;;2.30;;
27428;SDS011;14881;48.092;11.574;2022-09-17T09:40:22;9.82;;;2.55;;
27428;SDS011;14881;48.092;11.574;2022-09-17T09:42:59;4.28;;;2.10;;
27428;SDS011;14881;48.092;11.574;2022-09-17T09:45:37;5.75;;;2.35;;
27428;SDS011;14881;48.092;11.574;2022-09-17T09:48:16;4.88;;;2.50;;
27428;SDS011;14881;48.092;11.574;2022-09-17T09:51:01;6.68;;;2.15;;
27428;SDS011;14881;48.092;11.574;2022-09-17T09:53:43;5.53;;;2.30;;
27428;SDS011;14881;48.092;11.574;2022-09-17T09:56:26;4.90;;;2.00;;
27428;SDS011;14881;48.092;11.574;2022-09-17T09:59:00;5.15;;;2.45;;
27428;SDS011;14881;48.092;11.574;2022-09-17T10:01:28;8.88;;;2.50;;
27428;SDS011;14881;48.092;11.574;2022-09-17T10:03:57;10.65;;;2.60;;
27428;SDS011;14881;48.092;11.574;2022-09-17T10:06:27;4.53;;;2.58;;
27428;SDS011;14881;48.092;11.574;2022-09-17T10:09:11;6.43;;;2.08;;
27428;SDS011;14881;48.092;11.574;2022-09-17T10:11:41;6.35;;;2.65;;
27428;SDS011;14881;48.092;11.574;2022-09-17T10:14:25;8.55;;;2.20;;
27428;SDS011;14881;48.092;11.574;2022-09-17T10:17:13;7.68;;;2.50;;
27428;SDS011;14881;48.092;11.574;2022-09-17T10:19:43;6.38;;;2.25;;
27428;SDS011;14881;48.092;11.574;2022-09-17T10:25:00;6.13;;;2.30;;
27428;SDS011;14881;48.092;11.574;2022-09-17T10:27:29;11.57;;;3.53;;
27428;SDS011;14881;48.092;11.574;2022-09-17T10:30:00;6.13;;;2.38;;
27428;SDS011;14881;48.092;11.574;2022-09-17T10:32:39;8.63;;;2.55;;
27428;SDS011;14881;48.092;11.574;2022-09-17T10:35:22;13.32;;;3.30;;
27428;SDS011;14881;48.092;11.574;2022-09-17T10:37:52;9.20;;;2.85;;
27428;SDS011;14881;48.092;11.574;2022-09-17T10:40:26;9.25;;;3.13;;
27428;SDS011;14881;48.092;11.574;2022-09-17T10:43:16;6.88;;;3.10;;
27428;SDS011;14881;48.092;11.574;2022-09-17T10:45:57;4.75;;;2.67;;
27428;SDS011;14881;48.092;11.574;2022-09-17T10:48:27;10.63;;;3.20;;
27428;SDS011;14881;48.092;11.574;2022-09-17T10:50:59;6.88;;;2.72;;
27428;SDS011;14881;48.092;11.574;2022-09-17T10:53:28;6.35;;;2.55;;
27428;SDS011;14881;48.092;11.574;2022-09-17T10:56:03;5.00;;;2.38;;
27428;SDS011;14881;48.092;11.574;2022-09-17T10:58:43;4.80;;;2.65;;
27428;SDS011;14881;48.092;11.574;2022-09-17T11:01:24;4.97;;;2.63;;
27428;SDS011;14881;48.092;11.574;2022-09-17T11:10:03;8.23;;;3.45;;
27428;SDS011;14881;48.092;11.574;2022-09-17T11:12:49;7.10;;;3.30;;
27428;SDS011;14881;48.092;11.574;2022-09-17T11:15:32;8.23;;;3.90;;
27428;SDS011;14881;48.092;11.574;2022-09-17T11:18:25;8.07;;;3.58;;
27428;SDS011;14881;48.092;11.574;2022-09-17T11:21:15;5.25;;;2.60;;
27428;SDS011;14881;48.092;11.574;2022-09-17T11:23:57;7.43;;;2.70;;
27428;SDS011;14881;48.092;11.574;2022-09-17T11:26:48;9.32;;;2.88;;
27428;SDS011;14881;48.092;11.574;2022-09-17T11:29:29;7.90;;;3.33;;
27428;SDS011;14881;48.092;11.574;2022-09-17T11:32:09;6.37;;;2.77;;
27428;SDS011;14881;48.092;11.574;2022-09-17T11:34:57;5.97;;;2.20;;
27428;SDS011;14881;48.092;11.574;2022-09-17T11:37:30;4.32;;;2.17;;
27428;SDS011;14881;48.092;11.574;2022-09-17T11:40:05;6.28;;;2.10;;
27428;SDS011;14881;48.092;11.574;2022-09-17T11:42:41;3.50;;;1.98;;
27428;SDS011;14881;48.092;11.574;2022-09-17T11:45:16;4.13;;;2.33;;
27428;SDS011;14881;48.092;11.574;2022-09-17T11:47:48;5.55;;;2.00;;
27428;SDS011;14881;48.092;11.574;2022-09-17T11:50:18;4.50;;;2.40;;
27428;SDS011;14881;48.092;11.574;2022-09-17T11:52:53;4.22;;;2.10;;
27428;SDS011;14881;48.092;11.574;2022-09-17T11:55:31;6.05;;;2.33;;
27428;SDS011;14881;48.092;11.574;2022-09-17T11:58:07;3.38;;;1.90;;
27428;SDS011;14881;48.092;11.574;2022-09-17T12:00:41;3.53;;;2.05;;
27428;SDS011;14881;48.092;11.574;2022-09-17T12:03:17;5.03;;;2.83;;
27428;SDS011;14881;48.092;11.574;2022-09-17T12:05:53;2.50;;;2.00;;
27428;SDS011;14881;48.092;11.574;2022-09-17T12:08:23;5.20;;;2.83;;
27428;SDS011;14881;48.092;11.574;2022-09-17T12:10:57;5.03;;;2.25;;
27428;SDS011;14881;48.092;11.574;2022-09-17T12:13:31;4.85;;;2.00;;
27428;SDS011;14881;48.092;11.574;2022-09-17T12:16:09;2.58;;;2.20;;
27428;SDS011;14881;48.092;11.574;2022-09-17T12:18:46;2.78;;;2.10;;
27428;SDS011;14881;48.092;11.574;2022-09-17T12:21:20;4.15;;;1.80;;
27428;SDS011;14881;48.092;11.574;2022-09-17T12:23:53;5.22;;;1.85;;
27428;SDS011;14881;48.092;11.574;2022-09-17T12:26:28;4.95;;;2.28;;
27428;SDS011;14881;48.092;11.574;2022-09-17T12:29:14;6.40;;;2.63;;
27428;SDS011;14881;48.092;11.574;2022-09-17T12:31:59;4.47;;;2.35;;
27428;SDS011;14881;48.092;11.574;2022-09-17T12:34:37;3.55;;;2.33;;
27428;SDS011;14881;48.092;11.574;2022-09-17T12:37:16;4.00;;;2.47;;
27428;SDS011;14881;48.092;11.574;2022-09-17T12:40:05;5.07;;;3.08;;
27428;SDS011;14881;48.092;11.574;2022-09-17T12:42:54;5.38;;;2.67;;
27428;SDS011;14881;48.092;11.574;2022-09-17T12:45:39;3.15;;;2.38;;
27428;SDS011;14881;48.092;11.574;2022-09-17T12:51:40;6.70;;;3.15;;
27428;SDS011;14881;48.092;11.574;2022-09-17T12:54:21;10.07;;;4.03;;
27428;SDS011;14881;48.092;11.574;2022-09-17T12:57:02;7.38;;;3.78;;
27428;SDS011;14881;48.092;11.574;2022-09-17T12:59:40;8.02;;;4.88;;
27428;SDS011;14881;48.092;11.574;2022-09-17T13:02:16;11.30;;;5.10;;
27428;SDS011;14881;48.092;11.574;2022-09-17T13:05:02;5.43;;;3.17;;
27428;SDS011;14881;48.092;11.574;2022-09-17T13:07:58;4.75;;;2.10;;
27428;SDS011;14881;48.092;11.574;2022-09-17T13:10:40;3.60;;;2.13;;
27428;SDS011;14881;48.092;11.574;2022-09-17T13:13:25;6.93;;;2.67;;
27428;SDS011;14881;48.092;11.574;2022-09-17T13:16:04;4.60;;;2.33;;
27428;SDS011;14881;48.092;11.574;2022-09-17T13:18:45;5.75;;;2.92;;
27428;SDS011;14881;48.092;11.574;2022-09-17T13:21:42;5.50;;;2.60;;
27428;SDS011;14881;48.092;11.574;2022-09-17T13:24:20;3.80;;;2.55;;
27428;SDS011;14881;48.092;11.574;2022-09-17T13:26:50;5.65;;;2.30;;
27428;SDS011;14881;48.092;11.574;2022-09-17T13:32:41;5.22;;;3.30;;
27428;SDS011;14881;48.092;11.574;2022-09-17T13:38:17;5.53;;;3.35;;
27428;SDS011;14881;48.092;11.574;2022-09-17T13:40:51;6.97;;;3.45;;
27428;SDS011;14881;48.092;11.574;2022-09-17T13:43:41;6.30;;;4.40;;
27428;SDS011;14881;48.092;11.574;2022-09-17T13:46:16;6.72;;;4.50;;
27428;SDS011;14881;48.092;11.574;2022-09-17T13:48:51;10.07;;;4.78;;
27428;SDS011;14881;48.092;11.574;2022-09-17T13:54:18;7.25;;;4.35;;
27428;SDS011;14881;48.092;11.574;2022-09-17T13:57:01;7.55;;;3.97;;
27428;SDS011;14881;48.092;11.574;2022-09-17T13:59:36;8.50;;;4.32;;
27428;SDS011;14881;48.092;11.574;2022-09-17T14:10:54;6.40;;;3.50;;
27428;SDS011;14881;48.092;11.574;2022-09-17T14:13:40;5.85;;;3.38;;
27428;SDS011;14881;48.092;11.574;2022-09-17T14:19:19;5.63;;;3.53;;
27428;SDS011;14881;48.092;11.574;2022-09-17T14:21:57;6.22;;;3.15;;
27428;SDS011;14881;48.092;11.574;2022-09-17T14:24:31;6.70;;;2.67;;
27428;SDS011;14881;48.092;11.574;2022-09-17T14:32:50;5.97;;;2.15;;
27428;SDS011;14881;48.092;11.574;2022-09-17T14:35:23;3.63;;;1.80;;
27428;SDS011;14881;48.092;11.574;2022-09-17T14:37:57;4.00;;;2.33;;
27428;SDS011;14881;48.092;11.574;2022-09-17T14:40:26;4.40;;;2.20;;
27428;SDS011;14881;48.092;11.574;2022-09-17T14:42:57;4.45;;;2.05;;
27428;SDS011;14881;48.092;11.574;2022-09-17T14:45:30;3.10;;;2.33;;
27428;SDS011;14881;48.092;11.574;2022-09-17T14:48:18;4.55;;;2.33;;
27428;SDS011;14881;48.092;11.574;2022-09-17T14:51:24;2.80;;;2.00;;
27428;SDS011;14881;48.092;11.574;2022-09-17T14:56:51;5.68;;;2.22;;
27428;SDS011;14881;48.092;11.574;2022-09-17T15:02:22;4.50;;;1.98;;
27428;SDS011;14881;48.092;11.574;2022-09-17T15:04:56;2.80;;;1.87;;
27428;SDS011;14881;48.092;11.574;2022-09-17T15:07:24;3.53;;;2.00;;
27428;SDS011;14881;48.092;11.574;2022-09-17T15:09:53;5.78;;;2.00;;
27428;SDS011;14881;48.092;11.574;2022-09-17T15:12:22;7.15;;;2.05;;
27428;SDS011;14881;48.092;11.574;2022-09-17T15:14:55;3.05;;;1.98;;
27428;SDS011;14881;48.092;11.574;2022-09-17T15:17:27;3.53;;;1.63;;
27428;SDS011;14881;48.092;11.574;2022-09-17T15:19:59;3.25;;;1.98;;
27428;SDS011;14881;48.092;11.574;2022-09-17T15:22:32;2.63;;;1.80;;
27428;SDS011;14881;48.092;11.574;2022-09-17T15:25:03;2.10;;;1.52;;
27428;SDS011;14881;48.092;11.574;2022-09-17T15:27:35;3.45;;;1.70;;
27428;SDS011;14881;48.092;11.574;2022-09-17T15:30:08;4.50;;;2.10;;
27428;SDS011;14881;48.092;11.574;2022-09-17T15:32:41;2.83;;;1.48;;
27428;SDS011;14881;48.092;11.574;2022-09-17T15:35:19;2.35;;;1.55;;
27428;SDS011;14881;48.092;11.574;2022-09-17T15:37:50;3.42;;;2.00;;
27428;SDS011;14881;48.092;11.574;2022-09-17T15:40:40;2.72;;;1.52;;
27428;SDS011;14881;48.092;11.574;2022-09-17T15:43:13;4.25;;;2.03;;
27428;SDS011;14881;48.092;11.574;2022-09-17T15:45:44;2.65;;;1.60;;
27428;SDS011;14881;48.092;11.574;2022-09-17T15:48:34;3.35;;;2.10;;
27428;SDS011;14881;48.092;11.574;2022-09-17T15:51:05;4.63;;;1.90;;
27428;SDS011;14881;48.092;11.574;2022-09-17T15:53:49;2.42;;;1.98;;
27428;SDS011;14881;48.092;11.574;2022-09-17T15:56:18;2.30;;;1.50;;
27428;SDS011;14881;48.092;11.574;2022-09-17T15:58:51;2.42;;;1.60;;
27428;SDS011;14881;48.092;11.574;2022-09-17T16:04:31;4.43;;;1.52;;